Billie H — WCY4992 — position and weather

sailwx.info

Track history (hours):
 
Tides and Currents Weather Stations Pressure Air Temp Water Temp Dewpoint Dewpoint Depression Visibility Wind Speed Wind Dir Waves Ship Positions

Billie H

Owner: BOYER TOWING INC, KETCHIKAN, AK. More information available from US FCC via Universal Licensing System and Coast Guard Vessel Documentation Center.

Last reported at 2016-Aug-28 23:33 UTC. Time now 2016-Aug-29 00:13 UTC.
Position N 46°16' W 124°02'.

Type: Tow > 200 m length. MMSI: 366751770.

Date/timePositionNaut miles runAvg speedWind from/ knotsBaromVisibWave heightAir tempDewpointWater temp
2016-Aug-28 23:33N 46°16' W 124°02'0 0.0
2016-Aug-28 22:33N 46°16' W 124°02'0 0.0
2016-Aug-28 21:33N 46°16' W 124°02'0 0.0
2016-Aug-28 20:33N 46°16' W 124°02'0 0.0
2016-Aug-28 19:34N 46°16' W 124°02'0 0.0
2016-Aug-28 18:33N 46°16' W 124°02'0 0.0
2016-Aug-28 17:33N 46°16' W 124°02'0 0.0
2016-Aug-28 16:34N 46°16' W 124°02'0 0.0
2016-Aug-28 15:33N 46°16' W 124°02'0 0.0
2016-Aug-28 14:33N 46°16' W 124°02'0 0.0
2016-Aug-28 13:34N 46°16' W 124°02'0 0.0
2016-Aug-28 12:34N 46°16' W 124°02'0 0.0
2016-Aug-28 11:33N 46°16' W 124°02'0 0.0
2016-Aug-28 10:34N 46°16' W 124°02'0 0.0
2016-Aug-28 09:34N 46°16' W 124°02'0 0.0
2016-Aug-28 08:34N 46°16' W 124°02'0 0.0
2016-Aug-28 07:34N 46°16' W 124°02'0 0.0
2016-Aug-28 06:33N 46°16' W 124°02'0 0.0
2016-Aug-28 05:33N 46°16' W 124°02'0 0.0
2016-Aug-28 04:33N 46°16' W 124°02'0 0.0
2016-Aug-28 03:33N 46°16' W 124°02'0 0.0
2016-Aug-28 02:33N 46°16' W 124°02'0 0.0
2016-Aug-28 01:33N 46°16' W 124°02'0 0.0
2016-Aug-28 00:33N 46°16' W 124°02'0 0.0
2016-Aug-27 23:34N 46°16' W 124°02'0 0.0
2016-Aug-27 22:33N 46°16' W 124°02'0 0.0
2016-Aug-27 21:34N 46°16' W 124°02'0 0.0
2016-Aug-27 20:33N 46°16' W 124°02'0 0.0
2016-Aug-27 19:33N 46°16' W 124°02'0 0.0
2016-Aug-27 18:33N 46°16' W 124°02'0 0.0
2016-Aug-27 17:33N 46°16' W 124°02'0 0.0
2016-Aug-27 16:33N 46°16' W 124°02'0 0.0
2016-Aug-27 15:33N 46°16' W 124°02'0 0.0
2016-Aug-27 14:34N 46°16' W 124°02'3 2.9
2016-Aug-27 13:33N 46°15' W 124°06'5 5.0
2016-Aug-27 12:33N 46°17' W 124°13'6 5.7
2016-Aug-27 11:33N 46°20' W 124°19'7 7.1
2016-Aug-27 10:34N 46°27' W 124°22'7 7.2
2016-Aug-27 09:33N 46°34' W 124°24'7 7.0
2016-Aug-27 08:33N 46°41' W 124°26'7 7.0
2016-Aug-27 07:33N 46°48' W 124°28'7 6.9
2016-Aug-27 06:33N 46°55' W 124°30'14 7.1
2016-Aug-27 04:33N 47°08' W 124°35'7 7.4
2016-Aug-27 03:33N 47°16' W 124°38'7 7.4
2016-Aug-27 02:33N 47°23' W 124°41'7 7.3
2016-Aug-27 01:33N 47°30' W 124°43'8 7.5
2016-Aug-27 00:34N 47°37' W 124°46'7 7.1
2016-Aug-26 23:33N 47°44' W 124°48'7 7.3
2016-Aug-26 22:33N 47°51' W 124°51'15 7.5
2016-Aug-26 20:31N 48°06' W 124°56'7 7.2
2016-Aug-26 19:29N 48°13' W 124°58'6 6.3
2016-Aug-26 18:30N 48°19' W 124°54'5 5.2
2016-Aug-26 17:33N 48°23' W 124°49'5 4.9
2016-Aug-26 16:33N 48°26' W 124°44'6 6.2
2016-Aug-26 15:34N 48°24' W 124°35'7 6.5
2016-Aug-26 14:33N 48°21' W 124°26'7 7.1
2016-Aug-26 13:33N 48°18' W 124°16'7 7.2
2016-Aug-26 12:33N 48°15' W 124°07'7 7.4
2016-Aug-26 11:34N 48°12' W 123°57'9 8.7
2016-Aug-26 10:33N 48°12' W 123°43'9 9.0
2016-Aug-26 09:33N 48°13' W 123°30'9 9.0
2016-Aug-26 08:33N 48°14' W 123°17'8 8.2
2016-Aug-26 07:32N 48°18' W 123°05'7 7.3
2016-Aug-26 06:32N 48°21' W 122°56'13 6.5
2016-Aug-26 04:33N 48°31' W 122°43'4 3.9
2016-Aug-26 03:33N 48°31' W 122°37'0 0.0
2016-Aug-26 02:33N 48°31' W 122°37'  
2016-Aug-20 22:29N 48°31' W 122°37'0 0.0
2016-Aug-20 21:29N 48°31' W 122°37'0 0.0
2016-Aug-20 20:29N 48°31' W 122°37'0 0.0
2016-Aug-20 19:29N 48°31' W 122°37'0 0.0
2016-Aug-20 18:29N 48°31' W 122°37'0 0.0
2016-Aug-20 17:29N 48°31' W 122°37'0 0.0
2016-Aug-20 16:29N 48°31' W 122°37'0 0.0
2016-Aug-20 15:29N 48°31' W 122°37'0 0.0
2016-Aug-20 14:23N 48°31' W 122°37'0 0.0
2016-Aug-20 13:29N 48°31' W 122°37'0 0.0
2016-Aug-20 12:29N 48°31' W 122°37'0 0.0
2016-Aug-20 11:29N 48°31' W 122°37'0 0.0
2016-Aug-20 10:33N 48°31' W 122°37'0 0.0
2016-Aug-20 09:33N 48°31' W 122°37'0 0.2
2016-Aug-20 08:33N 48°32' W 122°37'4 4.0
2016-Aug-20 07:33N 48°31' W 122°43'2 1.8
2016-Aug-20 06:33N 48°29' W 122°44'3 2.6
2016-Aug-20 05:33N 48°26' W 122°45'4 3.8
2016-Aug-20 04:33N 48°24' W 122°49'4 4.0
2016-Aug-20 03:33N 48°21' W 122°54'10 4.9
2016-Aug-20 01:30N 48°16' W 123°06'7 7.4
2016-Aug-20 00:31N 48°13' W 123°16'1010.0
2016-Aug-19 23:31N 48°13' W 123°31'1110.8
2016-Aug-19 22:31N 48°12' W 123°47'1010.0
2016-Aug-19 21:32N 48°14' W 124°02'9 9.5
2016-Aug-19 20:33N 48°18' W 124°15'9 8.7
2016-Aug-19 19:33N 48°22' W 124°26'8 7.6
2016-Aug-19 18:33N 48°25' W 124°37'7 6.7
2016-Aug-19 17:33N 48°26' W 124°47'7 7.4
2016-Aug-19 16:33N 48°20' W 124°53'8 8.2
2016-Aug-19 15:31N 48°13' W 124°58'49 7.8
2016-Aug-19 09:14N 47°25' W 124°41'5 7.5
2016-Aug-19 08:33N 47°20' W 124°39'8 7.7
2016-Aug-19 07:33N 47°13' W 124°36'8 7.8
2016-Aug-19 06:33N 47°05' W 124°33'8 7.9
2016-Aug-19 05:33N 46°58' W 124°31'8 8.2
2016-Aug-19 04:33N 46°50' W 124°28'8 8.0
2016-Aug-19 03:33N 46°42' W 124°25'8 7.6
2016-Aug-19 02:33N 46°34' W 124°23'8 7.5
2016-Aug-19 01:33N 46°27' W 124°21'7 7.4
2016-Aug-19 00:33N 46°20' W 124°19'  
Track history (hours):
 
Tides and Currents Weather Stations Pressure Air Temp Water Temp Dewpoint Dewpoint Depression Visibility Wind Speed Wind Dir Waves Ship Positions

Billie H

Owner: BOYER TOWING INC, KETCHIKAN, AK. More information available from US FCC via Universal Licensing System and Coast Guard Vessel Documentation Center.

Last reported at 2016-Aug-28 23:33 UTC. Time now 2016-Aug-29 00:13 UTC.
Position N 46°16' W 124°02'.

Type: Tow > 200 m length. MMSI: 366751770.

Date/timePositionNaut miles runAvg speedWind from/ knotsBaromVisibWave heightAir tempDewpointWater temp
2016-Aug-28 23:33N 46°16' W 124°02'0 0.0
2016-Aug-28 22:33N 46°16' W 124°02'0 0.0
2016-Aug-28 21:33N 46°16' W 124°02'0 0.0
2016-Aug-28 20:33N 46°16' W 124°02'0 0.0
2016-Aug-28 19:34N 46°16' W 124°02'0 0.0
2016-Aug-28 18:33N 46°16' W 124°02'0 0.0
2016-Aug-28 17:33N 46°16' W 124°02'0 0.0
2016-Aug-28 16:34N 46°16' W 124°02'0 0.0
2016-Aug-28 15:33N 46°16' W 124°02'0 0.0
2016-Aug-28 14:33N 46°16' W 124°02'0 0.0
2016-Aug-28 13:34N 46°16' W 124°02'0 0.0
2016-Aug-28 12:34N 46°16' W 124°02'0 0.0
2016-Aug-28 11:33N 46°16' W 124°02'0 0.0
2016-Aug-28 10:34N 46°16' W 124°02'0 0.0
2016-Aug-28 09:34N 46°16' W 124°02'0 0.0
2016-Aug-28 08:34N 46°16' W 124°02'0 0.0
2016-Aug-28 07:34N 46°16' W 124°02'0 0.0
2016-Aug-28 06:33N 46°16' W 124°02'0 0.0
2016-Aug-28 05:33N 46°16' W 124°02'0 0.0
2016-Aug-28 04:33N 46°16' W 124°02'0 0.0
2016-Aug-28 03:33N 46°16' W 124°02'0 0.0
2016-Aug-28 02:33N 46°16' W 124°02'0 0.0
2016-Aug-28 01:33N 46°16' W 124°02'0 0.0
2016-Aug-28 00:33N 46°16' W 124°02'0 0.0
2016-Aug-27 23:34N 46°16' W 124°02'0 0.0
2016-Aug-27 22:33N 46°16' W 124°02'0 0.0
2016-Aug-27 21:34N 46°16' W 124°02'0 0.0
2016-Aug-27 20:33N 46°16' W 124°02'0 0.0
2016-Aug-27 19:33N 46°16' W 124°02'0 0.0
2016-Aug-27 18:33N 46°16' W 124°02'0 0.0
2016-Aug-27 17:33N 46°16' W 124°02'0 0.0
2016-Aug-27 16:33N 46°16' W 124°02'0 0.0
2016-Aug-27 15:33N 46°16' W 124°02'0 0.0
2016-Aug-27 14:34N 46°16' W 124°02'3 2.9
2016-Aug-27 13:33N 46°15' W 124°06'5 5.0
2016-Aug-27 12:33N 46°17' W 124°13'6 5.7
2016-Aug-27 11:33N 46°20' W 124°19'7 7.1
2016-Aug-27 10:34N 46°27' W 124°22'7 7.2
2016-Aug-27 09:33N 46°34' W 124°24'7 7.0
2016-Aug-27 08:33N 46°41' W 124°26'7 7.0
2016-Aug-27 07:33N 46°48' W 124°28'7 6.9
2016-Aug-27 06:33N 46°55' W 124°30'14 7.1
2016-Aug-27 04:33N 47°08' W 124°35'7 7.4
2016-Aug-27 03:33N 47°16' W 124°38'7 7.4
2016-Aug-27 02:33N 47°23' W 124°41'7 7.3
2016-Aug-27 01:33N 47°30' W 124°43'8 7.5
2016-Aug-27 00:34N 47°37' W 124°46'7 7.1
2016-Aug-26 23:33N 47°44' W 124°48'7 7.3
2016-Aug-26 22:33N 47°51' W 124°51'15 7.5
2016-Aug-26 20:31N 48°06' W 124°56'7 7.2
2016-Aug-26 19:29N 48°13' W 124°58'6 6.3
2016-Aug-26 18:30N 48°19' W 124°54'5 5.2
2016-Aug-26 17:33N 48°23' W 124°49'5 4.9
2016-Aug-26 16:33N 48°26' W 124°44'6 6.2
2016-Aug-26 15:34N 48°24' W 124°35'7 6.5
2016-Aug-26 14:33N 48°21' W 124°26'7 7.1
2016-Aug-26 13:33N 48°18' W 124°16'7 7.2
2016-Aug-26 12:33N 48°15' W 124°07'7 7.4
2016-Aug-26 11:34N 48°12' W 123°57'9 8.7
2016-Aug-26 10:33N 48°12' W 123°43'9 9.0
2016-Aug-26 09:33N 48°13' W 123°30'9 9.0
2016-Aug-26 08:33N 48°14' W 123°17'8 8.2
2016-Aug-26 07:32N 48°18' W 123°05'7 7.3
2016-Aug-26 06:32N 48°21' W 122°56'13 6.5
2016-Aug-26 04:33N 48°31' W 122°43'4 3.9
2016-Aug-26 03:33N 48°31' W 122°37'0 0.0
2016-Aug-26 02:33N 48°31' W 122°37'  
2016-Aug-20 22:29N 48°31' W 122°37'0 0.0
2016-Aug-20 21:29N 48°31' W 122°37'0 0.0
2016-Aug-20 20:29N 48°31' W 122°37'0 0.0
2016-Aug-20 19:29N 48°31' W 122°37'0 0.0
2016-Aug-20 18:29N 48°31' W 122°37'0 0.0
2016-Aug-20 17:29N 48°31' W 122°37'0 0.0
2016-Aug-20 16:29N 48°31' W 122°37'0 0.0
2016-Aug-20 15:29N 48°31' W 122°37'0 0.0
2016-Aug-20 14:23N 48°31' W 122°37'0 0.0
2016-Aug-20 13:29N 48°31' W 122°37'0 0.0
2016-Aug-20 12:29N 48°31' W 122°37'0 0.0
2016-Aug-20 11:29N 48°31' W 122°37'0 0.0
2016-Aug-20 10:33N 48°31' W 122°37'0 0.0
2016-Aug-20 09:33N 48°31' W 122°37'0 0.2
2016-Aug-20 08:33N 48°32' W 122°37'4 4.0
2016-Aug-20 07:33N 48°31' W 122°43'2 1.8
2016-Aug-20 06:33N 48°29' W 122°44'3 2.6
2016-Aug-20 05:33N 48°26' W 122°45'4 3.8
2016-Aug-20 04:33N 48°24' W 122°49'4 4.0
2016-Aug-20 03:33N 48°21' W 122°54'10 4.9
2016-Aug-20 01:30N 48°16' W 123°06'7 7.4
2016-Aug-20 00:31N 48°13' W 123°16'1010.0
2016-Aug-19 23:31N 48°13' W 123°31'1110.8
2016-Aug-19 22:31N 48°12' W 123°47'1010.0
2016-Aug-19 21:32N 48°14' W 124°02'9 9.5
2016-Aug-19 20:33N 48°18' W 124°15'9 8.7
2016-Aug-19 19:33N 48°22' W 124°26'8 7.6
2016-Aug-19 18:33N 48°25' W 124°37'7 6.7
2016-Aug-19 17:33N 48°26' W 124°47'7 7.4
2016-Aug-19 16:33N 48°20' W 124°53'8 8.2
2016-Aug-19 15:31N 48°13' W 124°58'49 7.8
2016-Aug-19 09:14N 47°25' W 124°41'5 7.5
2016-Aug-19 08:33N 47°20' W 124°39'8 7.7
2016-Aug-19 07:33N 47°13' W 124°36'8 7.8
2016-Aug-19 06:33N 47°05' W 124°33'8 7.9
2016-Aug-19 05:33N 46°58' W 124°31'8 8.2
2016-Aug-19 04:33N 46°50' W 124°28'8 8.0
2016-Aug-19 03:33N 46°42' W 124°25'8 7.6
2016-Aug-19 02:33N 46°34' W 124°23'8 7.5
2016-Aug-19 01:33N 46°27' W 124°21'7 7.4
2016-Aug-19 00:33N 46°20' W 124°19'  

Dump ship's entire track history